Terminal Aerodrome Forecast
Issued by NWS

Home | Current Version | Previous Version | Text Only | Print | Product List | Glossary On
Versions: 1 2 3 4 5 6 7 8 9 10 11 12 13 14
641
FTUS45 KPSR 221120
TAFBLH
TAF
KBLH 221120Z 2212/2312 26007KT P6SM OVC250
     FM222100 24014KT P6SM FEW180 SCT220
     FM230300 28018G27KT P6SM SCT220
     FM230800 30014KT P6SM SKC=

USA.gov is the U.S. government's official web portal to all federal, state and local government web resources and services.